Time;durP1;ratioP1;P1;durP2;ratioP2;P2;SDS_P1;SDS_P2;PMS_P1;PMS_P2;Temp;Humidity;BMP_temperature;BMP_pressure;BME280_temperature;BME280_humidity;BME280_pressure;Samples;Min_cycle;Max_cycle;Signal;HPM_P1;HPM_P2
2023/03/29 00:00:13;;;;;;;6.53;2.77;;;4.60;99.90;;;;;;4974538;28;20225;-83
2023/03/29 00:02:40;;;;;;;5.07;2.90;;;4.60;99.90;;;;;;4976312;28;20235;-82
2023/03/29 00:05:08;;;;;;;6.20;2.83;;;4.60;99.90;;;;;;4978650;28;20232;-81
2023/03/29 00:07:36;;;;;;;5.23;2.83;;;4.60;99.90;;;;;;4976234;28;20657;-83
2023/03/29 00:10:04;;;;;;;5.60;2.83;;;4.60;99.90;;;;;;4978915;28;20216;-80
2023/03/29 00:12:32;;;;;;;8.30;2.80;;;4.60;99.90;;;;;;4977945;28;20769;-80
2023/03/29 00:14:59;;;;;;;6.33;2.80;;;4.60;99.90;;;;;;4977512;28;20268;-80
2023/03/29 00:17:27;;;;;;;5.97;2.90;;;4.60;99.90;;;;;;4975744;28;20317;-81
2023/03/29 00:19:54;;;;;;;7.33;3.37;;;4.60;99.90;;;;;;4976314;28;20228;-80
2023/03/29 00:22:21;;;;;;;6.77;2.80;;;4.50;99.90;;;;;;4977813;28;20244;-81
2023/03/29 00:24:48;;;;;;;4.90;3.00;;;4.50;99.90;;;;;;4979264;28;20806;-79
2023/03/29 00:27:15;;;;;;;8.10;3.20;;;4.50;99.90;;;;;;4981802;28;20989;-79
2023/03/29 00:29:42;;;;;;;6.67;3.03;;;4.50;99.90;;;;;;4977274;28;20229;-83
2023/03/29 00:32:09;;;;;;;6.97;2.93;;;4.40;99.90;;;;;;4980476;28;20224;-80
2023/03/29 00:34:37;;;;;;;6.17;2.37;;;4.40;99.90;;;;;;4980945;28;20307;-80
2023/03/29 00:37:07;;;;;;;5.83;2.47;;;4.30;99.90;;;;;;4978000;28;20225;-82
2023/03/29 00:39:34;;;;;;;9.97;3.10;;;4.30;99.90;;;;;;4980378;28;20306;-80
2023/03/29 00:42:01;;;;;;;8.33;3.10;;;4.30;99.90;;;;;;4979909;28;20236;-80
2023/03/29 00:45:08;;;;;;;5.93;2.63;;;4.30;99.90;;;;;;4979657;28;20270;-82
2023/03/29 00:47:40;;;;;;;4.60;2.70;;;4.20;99.90;;;;;;4976952;28;20232;-82
2023/03/29 00:50:14;;;;;;;7.33;2.93;;;4.20;99.90;;;;;;4983185;28;20257;-84
2023/03/29 00:52:45;;;;;;;6.00;2.60;;;4.20;99.90;;;;;;4977116;28;20239;-82
2023/03/29 00:55:15;;;;;;;5.37;2.70;;;4.10;99.90;;;;;;4981155;28;20236;-81
2023/03/29 00:57:45;;;;;;;5.43;2.93;;;4.10;99.90;;;;;;4979390;28;20287;-80
2023/03/29 01:00:16;;;;;;;5.23;2.60;;;4.10;99.90;;;;;;4978408;28;20311;-80
2023/03/29 01:02:49;;;;;;;6.77;2.87;;;4.10;99.90;;;;;;4976962;28;20287;-80
2023/03/29 01:05:23;;;;;;;6.63;2.90;;;4.10;99.90;;;;;;4978411;28;20301;-80
2023/03/29 01:07:56;;;;;;;6.27;2.80;;;4.00;99.90;;;;;;4975401;28;20278;-80
2023/03/29 01:10:30;;;;;;;5.87;2.80;;;4.10;99.90;;;;;;4972743;28;20236;-80
2023/03/29 01:13:03;;;;;;;6.90;3.10;;;4.00;99.90;;;;;;4965869;28;20256;-80
2023/03/29 01:15:31;;;;;;;3.17;2.40;;;4.00;99.90;;;;;;4978495;28;20851;-80
2023/03/29 01:18:00;;;;;;;5.57;2.50;;;4.00;99.90;;;;;;4978697;28;20224;-80
2023/03/29 01:20:42;;;;;;;7.63;3.07;;;4.00;99.90;;;;;;4982316;28;20225;-80
2023/03/29 01:23:32;;;;;;;7.33;2.90;;;4.00;99.90;;;;;;4985141;28;20230;-80
2023/03/29 01:26:11;;;;;;;4.77;2.57;;;4.10;99.90;;;;;;4989325;28;20244;-80
2023/03/29 01:28:45;;;;;;;7.57;2.83;;;4.00;99.90;;;;;;4979621;28;20240;-82
2023/03/29 01:31:16;;;;;;;8.10;2.80;;;4.00;99.90;;;;;;4986518;28;20223;-80
2023/03/29 01:33:48;;;;;;;4.50;2.53;;;4.00;99.90;;;;;;4977009;28;20789;-80
2023/03/29 01:36:19;;;;;;;6.43;2.80;;;3.90;99.90;;;;;;4982003;28;20858;-81
2023/03/29 01:38:50;;;;;;;5.80;2.50;;;3.90;99.90;;;;;;4988365;28;20237;-82
2023/03/29 01:41:17;;;;;;;5.07;3.00;;;3.90;99.90;;;;;;4980820;28;20303;-82
2023/03/29 01:43:50;;;;;;;6.07;3.07;;;3.80;99.90;;;;;;4985188;28;20778;-80
2023/03/29 01:46:26;;;;;;;6.57;3.30;;;3.80;99.90;;;;;;4981819;28;20255;-80
2023/03/29 01:48:57;;;;;;;5.00;2.80;;;3.80;99.90;;;;;;4985880;28;20233;-80
2023/03/29 01:51:30;;;;;;;6.40;3.20;;;3.80;99.90;;;;;;4985299;28;20230;-83
2023/03/29 01:54:02;;;;;;;6.47;3.03;;;3.70;99.90;;;;;;4982964;28;20306;-80
2023/03/29 01:56:33;;;;;;;7.47;3.00;;;3.80;99.90;;;;;;4978056;28;21778;-81
2023/03/29 01:59:04;;;;;;;7.63;2.87;;;3.70;99.90;;;;;;4982899;28;20318;-81
2023/03/29 02:01:36;;;;;;;8.13;3.03;;;3.70;99.90;;;;;;4984335;28;20288;-83
2023/03/29 02:04:08;;;;;;;6.20;2.63;;;3.70;99.90;;;;;;4978783;28;20228;-84
2023/03/29 02:06:38;;;;;;;5.83;2.90;;;3.60;99.90;;;;;;4992921;28;20224;-81
2023/03/29 02:09:05;;;;;;;5.87;2.80;;;3.60;99.90;;;;;;4995150;28;20308;-84
2023/03/29 02:11:34;;;;;;;5.77;2.73;;;3.50;99.90;;;;;;4980608;28;20242;-82
2023/03/29 02:14:04;;;;;;;6.77;2.70;;;3.50;99.90;;;;;;4983386;28;20237;-80
2023/03/29 02:16:35;;;;;;;7.07;2.90;;;3.50;99.90;;;;;;4979822;28;20329;-80
2023/03/29 02:19:02;;;;;;;7.63;2.70;;;3.40;99.90;;;;;;4982151;28;20295;-83
2023/03/29 02:21:36;;;;;;;3.90;2.40;;;3.30;99.90;;;;;;4981627;28;21613;-83
2023/03/29 02:24:07;;;;;;;7.00;3.00;;;3.30;99.90;;;;;;4982740;28;20232;-80
2023/03/29 02:26:33;;;;;;;4.67;2.60;;;3.30;99.90;;;;;;4977755;28;20308;-81
2023/03/29 02:29:01;;;;;;;3.83;2.50;;;3.20;99.90;;;;;;4978937;28;20226;-80
2023/03/29 02:31:35;;;;;;;7.40;2.50;;;3.20;99.90;;;;;;4981212;28;20308;-83
2023/03/29 02:34:08;;;;;;;5.50;2.50;;;3.20;99.90;;;;;;4980438;28;20305;-81
2023/03/29 02:36:41;;;;;;;5.43;2.27;;;3.10;99.90;;;;;;4979081;28;20784;-82
2023/03/29 02:39:12;;;;;;;6.43;2.83;;;3.10;99.90;;;;;;4976753;28;20233;-80
2023/03/29 02:41:42;;;;;;;8.17;2.50;;;3.10;99.90;;;;;;4973356;28;20230;-79
2023/03/29 02:44:12;;;;;;;7.30;2.50;;;3.00;99.90;;;;;;4973694;28;20230;-81
2023/03/29 02:46:42;;;;;;;7.27;2.40;;;3.00;99.90;;;;;;4979592;28;20230;-80
2023/03/29 02:49:10;;;;;;;5.70;2.73;;;3.00;99.90;;;;;;4978224;28;20229;-81
2023/03/29 02:51:38;;;;;;;7.60;2.97;;;3.00;99.90;;;;;;4980342;28;20225;-80
2023/03/29 02:54:09;;;;;;;5.60;2.83;;;3.10;99.90;;;;;;4976234;28;20231;-79
2023/03/29 02:56:43;;;;;;;6.20;2.17;;;3.00;99.90;;;;;;4976698;28;20229;-83
2023/03/29 02:59:11;;;;;;;5.57;2.27;;;3.00;99.90;;;;;;4978051;28;20233;-82
2023/03/29 03:01:38;;;;;;;8.20;2.77;;;3.00;99.90;;;;;;4974083;28;20273;-84
2023/03/29 03:04:06;;;;;;;4.80;2.40;;;3.00;99.90;;;;;;4981937;28;20678;-79
2023/03/29 03:06:33;;;;;;;8.10;2.53;;;2.90;99.90;;;;;;4976427;28;20422;-82
2023/03/29 03:09:00;;;;;;;6.03;2.30;;;3.00;99.90;;;;;;4978798;28;20241;-79
2023/03/29 03:11:30;;;;;;;8.17;2.40;;;2.90;99.90;;;;;;4973286;28;20255;-79
2023/03/29 03:13:57;;;;;;;4.70;2.30;;;2.90;99.90;;;;;;4980464;28;20256;-83
2023/03/29 03:16:24;;;;;;;4.67;2.90;;;2.90;99.90;;;;;;4977694;28;20412;-81
2023/03/29 03:18:53;;;;;;;5.70;2.27;;;2.90;99.90;;;;;;4977971;28;20219;-81
2023/03/29 03:21:23;;;;;;;6.20;2.30;;;2.90;99.90;;;;;;4969758;28;20218;-80
2023/03/29 03:23:50;;;;;;;6.33;2.60;;;2.90;99.90;;;;;;4980823;28;20292;-81
2023/03/29 03:26:17;;;;;;;6.17;2.57;;;2.90;99.90;;;;;;4976954;28;20222;-80
2023/03/29 03:28:45;;;;;;;7.53;2.40;;;2.90;99.90;;;;;;4979092;28;20839;-80
2023/03/29 03:31:27;;;;;;;6.83;2.53;;;2.90;99.90;;;;;;4981395;28;20231;-80
2023/03/29 03:34:14;;;;;;;6.77;2.60;;;2.90;99.90;;;;;;4975143;28;20231;-82
2023/03/29 03:37:00;;;;;;;6.03;2.37;;;2.90;99.90;;;;;;4979660;28;20239;-80
2023/03/29 03:39:28;;;;;;;4.33;2.27;;;3.00;99.90;;;;;;4977985;28;20235;-80
2023/03/29 03:41:55;;;;;;;5.00;2.33;;;2.90;99.90;;;;;;4977692;28;20236;-81
2023/03/29 03:44:22;;;;;;;7.40;2.80;;;2.90;99.90;;;;;;4980061;28;20220;-81
2023/03/29 03:47:06;;;;;;;6.07;2.20;;;2.90;99.90;;;;;;4995191;23;20245;-75
2023/03/29 03:49:35;;;;;;;7.30;2.50;;;2.90;99.90;;;;;;4977877;28;20232;-75
2023/03/29 03:52:03;;;;;;;4.63;2.20;;;2.90;99.90;;;;;;4979462;28;20657;-75
2023/03/29 03:54:30;;;;;;;7.60;2.53;;;2.90;99.90;;;;;;4982946;28;20225;-75
2023/03/29 03:57:21;;;;;;;4.87;2.07;;;2.90;99.90;;;;;;4994263;28;20229;-75
2023/03/29 03:59:51;;;;;;;6.90;2.80;;;2.90;99.90;;;;;;4984630;28;20222;-75
2023/03/29 04:02:26;;;;;;;6.97;2.87;;;2.90;99.90;;;;;;4981031;28;20304;-76
2023/03/29 04:04:53;;;;;;;4.73;2.93;;;2.80;99.90;;;;;;4982761;28;20249;-75
2023/03/29 04:07:24;;;;;;;5.40;2.50;;;2.80;99.90;;;;;;4982026;28;20595;-76
2023/03/29 04:10:10;;;;;;;9.83;2.60;;;2.80;99.90;;;;;;4995215;28;20444;-76
2023/03/29 04:12:42;;;;;;;8.80;4.00;;;2.80;99.90;;;;;;4999430;28;20820;-76
2023/03/29 04:15:10;;;;;;;6.97;2.43;;;2.80;99.90;;;;;;4993447;28;20214;-76
2023/03/29 04:17:41;;;;;;;7.63;2.90;;;2.80;99.90;;;;;;4983988;28;20297;-76
2023/03/29 04:20:25;;;;;;;5.97;2.60;;;2.80;99.90;;;;;;4991043;28;20234;-77
2023/03/29 04:22:53;;;;;;;7.07;3.13;;;2.80;99.90;;;;;;4980152;28;20220;-79
2023/03/29 04:25:21;;;;;;;5.63;2.80;;;2.80;99.90;;;;;;4981945;28;20699;-79
2023/03/29 04:27:48;;;;;;;7.03;2.93;;;2.80;99.90;;;;;;4998494;28;20462;-79
2023/03/29 04:30:35;;;;;;;6.57;2.40;;;2.80;99.90;;;;;;4983653;28;20255;-79
2023/03/29 04:33:12;;;;;;;7.07;3.17;;;2.80;99.90;;;;;;4982520;28;20294;-79
2023/03/29 04:35:42;;;;;;;6.70;3.00;;;2.80;99.90;;;;;;4982823;28;20309;-79
2023/03/29 04:38:15;;;;;;;7.83;3.33;;;2.80;99.90;;;;;;4985769;28;20240;-79
2023/03/29 04:40:44;;;;;;;8.00;3.17;;;2.80;99.90;;;;;;4985909;28;20329;-79
2023/03/29 04:43:23;;;;;;;5.87;3.23;;;2.80;99.90;;;;;;4983459;28;20357;-79
2023/03/29 04:46:13;;;;;;;6.33;2.67;;;2.80;99.90;;;;;;4984619;28;20309;-80
2023/03/29 04:49:10;;;;;;;5.90;2.90;;;2.80;99.90;;;;;;4972414;28;20575;-78
2023/03/29 04:51:48;;;;;;;7.93;3.40;;;2.80;99.90;;;;;;4980275;28;20224;-79
2023/03/29 04:54:20;;;;;;;8.40;3.70;;;2.80;99.90;;;;;;4979773;28;20221;-78
2023/03/29 04:56:59;;;;;;;26.37;16.87;;;2.80;99.90;;;;;;4972225;28;20299;-79
2023/03/29 04:59:35;;;;;;;10.33;5.40;;;2.80;99.90;;;;;;4978640;28;20626;-79
2023/03/29 05:02:08;;;;;;;7.33;3.57;;;2.80;99.90;;;;;;4978584;28;20315;-76
2023/03/29 05:04:37;;;;;;;7.53;3.53;;;2.80;99.90;;;;;;4983975;28;20285;-78
2023/03/29 05:07:11;;;;;;;5.20;3.17;;;2.80;99.90;;;;;;4984402;28;20232;-78
2023/03/29 05:09:40;;;;;;;6.63;3.43;;;2.90;99.90;;;;;;4986643;28;20252;-77
2023/03/29 05:12:08;;;;;;;8.63;4.43;;;2.90;99.90;;;;;;4986694;28;20829;-79
2023/03/29 05:14:47;;;;;;;5.50;3.60;;;2.90;99.90;;;;;;4982035;28;20229;-78
2023/03/29 05:17:13;;;;;;;8.80;3.90;;;2.90;99.90;;;;;;4986030;28;20649;-79
2023/03/29 05:19:42;;;;;;;10.23;3.70;;;2.90;99.90;;;;;;4982064;28;20217;-79
2023/03/29 05:22:09;;;;;;;9.23;3.73;;;2.90;99.90;;;;;;4981881;28;20232;-79
2023/03/29 05:24:37;;;;;;;7.20;4.20;;;2.90;99.90;;;;;;5002886;28;20741;-79
2023/03/29 05:27:12;;;;;;;9.07;3.53;;;3.00;99.90;;;;;;4986022;28;20224;-79
2023/03/29 05:29:40;;;;;;;8.97;4.73;;;2.90;99.90;;;;;;4983454;28;20237;-79
2023/03/29 05:32:23;;;;;;;7.10;4.20;;;2.90;99.90;;;;;;4983232;28;20274;-79
2023/03/29 05:34:51;;;;;;;11.93;4.10;;;2.80;99.90;;;;;;4982816;28;20224;-79
2023/03/29 05:37:18;;;;;;;10.10;4.47;;;2.80;99.90;;;;;;4984259;28;20232;-79
2023/03/29 05:39:55;;;;;;;8.20;4.30;;;2.80;99.90;;;;;;4983287;28;20736;-79
2023/03/29 05:42:28;;;;;;;7.43;4.63;;;2.90;99.90;;;;;;4978303;28;20221;-79
2023/03/29 05:44:59;;;;;;;6.93;4.47;;;2.80;99.90;;;;;;4982385;28;20257;-79
2023/03/29 05:47:26;;;;;;;6.53;4.30;;;2.90;99.90;;;;;;4986497;28;20240;-79
2023/03/29 05:49:53;;;;;;;8.40;4.67;;;2.90;99.90;;;;;;4987524;28;20368;-79
2023/03/29 05:52:22;;;;;;;6.03;4.60;;;2.90;99.90;;;;;;4987471;28;20217;-79
2023/03/29 05:54:49;;;;;;;8.83;4.50;;;2.90;99.90;;;;;;4988704;28;20774;-79
2023/03/29 05:57:16;;;;;;;7.90;4.87;;;2.90;99.90;;;;;;4992446;28;20229;-79
2023/03/29 05:59:45;;;;;;;9.53;5.50;;;2.90;99.90;;;;;;4983209;28;20255;-79
2023/03/29 06:02:14;;;;;;;9.80;6.03;;;2.90;99.90;;;;;;4967783;28;20237;-79
2023/03/29 06:04:45;;;;;;;8.50;5.30;;;3.00;99.90;;;;;;4988530;28;20610;-79
2023/03/29 06:07:24;;;;;;;10.17;5.50;;;3.00;99.90;;;;;;5005289;28;20245;-79
2023/03/29 06:10:12;;;;;;;10.97;5.13;;;3.00;99.90;;;;;;5004744;28;20693;-79
2023/03/29 06:12:43;;;;;;;9.47;6.07;;;3.10;99.90;;;;;;4994825;28;20218;-78
2023/03/29 06:15:13;;;;;;;8.37;5.87;;;3.20;99.90;;;;;;4982496;28;20224;-79
2023/03/29 06:17:51;;;;;;;7.87;5.83;;;3.20;99.90;;;;;;4995999;28;20734;-80
2023/03/29 06:20:18;;;;;;;9.97;5.40;;;3.30;99.90;;;;;;4992611;28;20323;-80
2023/03/29 06:22:49;;;;;;;7.03;5.03;;;3.30;99.90;;;;;;4993721;28;20228;-79
2023/03/29 06:25:18;;;;;;;8.13;5.50;;;3.40;99.90;;;;;;4991505;28;20236;-80
2023/03/29 06:27:47;;;;;;;9.77;5.20;;;3.40;99.90;;;;;;4997166;28;20259;-79
2023/03/29 06:30:19;;;;;;;8.73;5.53;;;3.50;99.90;;;;;;4993171;28;20307;-79
2023/03/29 06:32:50;;;;;;;8.33;5.03;;;3.50;99.90;;;;;;4995286;28;20290;-79
2023/03/29 06:35:27;;;;;;;6.73;5.17;;;3.60;99.90;;;;;;4993617;28;20287;-79
2023/03/29 06:38:04;;;;;;;10.03;5.67;;;3.70;99.90;;;;;;4995066;28;20227;-79
2023/03/29 06:40:44;;;;;;;7.13;5.17;;;3.70;99.90;;;;;;4995876;28;20237;-79
2023/03/29 06:43:12;;;;;;;9.03;5.80;;;3.70;99.90;;;;;;4998206;28;20335;-79
2023/03/29 06:45:40;;;;;;;7.03;4.87;;;3.70;99.90;;;;;;5012068;28;20236;-79
2023/03/29 06:48:17;;;;;;;10.53;5.83;;;3.80;99.90;;;;;;4993978;28;20734;-79
2023/03/29 06:50:43;;;;;;;8.83;5.10;;;3.80;99.90;;;;;;4992636;28;20657;-79
2023/03/29 06:53:14;;;;;;;9.83;5.23;;;3.90;99.90;;;;;;4990460;28;20308;-79
2023/03/29 06:55:42;;;;;;;9.33;5.57;;;3.90;99.90;;;;;;4994867;28;20236;-79
2023/03/29 06:58:24;;;;;;;7.00;5.00;;;3.90;99.90;;;;;;4992831;28;20242;-80
2023/03/29 07:00:52;;;;;;;8.83;5.80;;;4.00;99.90;;;;;;4996334;28;20220;-79
2023/03/29 07:03:34;;;;;;;9.77;5.40;;;4.00;99.90;;;;;;4995384;28;20238;-80
2023/03/29 07:06:08;;;;;;;6.87;5.10;;;4.00;99.90;;;;;;4991134;28;20232;-79
2023/03/29 07:08:42;;;;;;;9.10;5.20;;;4.10;99.90;;;;;;4994504;28;20291;-79
2023/03/29 07:11:17;;;;;;;9.07;5.70;;;4.10;99.90;;;;;;4989539;28;20329;-79
2023/03/29 07:13:49;;;;;;;9.03;5.17;;;4.20;99.90;;;;;;4994238;28;20233;-79
2023/03/29 07:16:20;;;;;;;10.30;5.10;;;4.30;99.90;;;;;;4989947;28;20224;-80
2023/03/29 07:19:07;;;;;;;6.43;4.63;;;4.30;99.90;;;;;;4996291;28;20252;-79
2023/03/29 07:21:53;;;;;;;7.67;4.50;;;4.30;99.90;;;;;;5008918;28;20334;-79
2023/03/29 07:24:23;;;;;;;7.77;4.70;;;4.40;99.90;;;;;;4991618;28;20597;-80
2023/03/29 07:26:50;;;;;;;8.87;5.23;;;4.50;99.90;;;;;;4992286;28;20241;-79
2023/03/29 07:33:03;;;;;;;6.33;4.53;;;4.60;99.90;;;;;;4819121;29;20860;-79
2023/03/29 07:35:37;;;;;;;6.47;4.77;;;4.70;99.90;;;;;;4979151;28;20241;-79
2023/03/29 07:38:04;;;;;;;6.77;4.50;;;4.70;99.90;;;;;;4994813;28;20496;-79
2023/03/29 07:40:33;;;;;;;5.90;4.57;;;4.70;99.90;;;;;;4986843;28;20290;-80
2023/03/29 07:42:59;;;;;;;6.27;4.67;;;4.80;99.90;;;;;;5010182;28;20324;-79
2023/03/29 07:45:30;;;;;;;7.17;4.87;;;4.80;99.90;;;;;;4992839;28;20567;-80
2023/03/29 07:48:06;;;;;;;8.27;4.83;;;4.90;99.90;;;;;;4987209;28;20225;-79
2023/03/29 07:50:46;;;;;;;6.43;4.53;;;4.90;99.90;;;;;;4992606;28;20238;-79
2023/03/29 07:53:14;;;;;;;7.37;4.83;;;5.00;99.90;;;;;;4990700;28;20783;-79
2023/03/29 07:55:45;;;;;;;7.30;5.27;;;5.10;99.90;;;;;;4990200;28;20286;-79
2023/03/29 07:58:42;;;;;;;4.60;4.03;;;5.20;99.90;;;;;;4988674;28;20237;-79
2023/03/29 08:01:09;;;;;;;6.37;4.47;;;5.40;99.90;;;;;;4990934;28;20257;-79
2023/03/29 08:04:00;;;;;;;7.03;4.30;;;5.50;99.90;;;;;;5008770;28;20234;-79
2023/03/29 08:06:54;;;;;;;6.17;4.27;;;5.60;99.90;;;;;;4968479;28;20388;-79
2023/03/29 08:09:23;;;;;;;6.13;4.60;;;5.80;99.90;;;;;;4991228;28;20245;-80
2023/03/29 08:11:50;;;;;;;5.80;4.20;;;5.90;99.90;;;;;;4991214;28;20554;-79
2023/03/29 08:17:44;;;;;;;7.50;4.10;;;6.10;99.90;;;;;;4935440;28;20317;-79
2023/03/29 08:20:14;;;;;;;6.60;4.20;;;6.20;99.90;;;;;;4986300;28;20222;-79
2023/03/29 08:22:43;;;;;;;8.63;4.60;;;6.30;99.90;;;;;;4991889;28;20320;-79
2023/03/29 08:25:28;;;;;;;6.47;4.23;;;6.30;99.90;;;;;;4990915;28;20230;-79
2023/03/29 08:27:56;;;;;;;6.40;3.60;;;6.30;99.90;;;;;;4988984;28;20604;-79
2023/03/29 08:30:32;;;;;;;6.33;3.87;;;6.40;99.90;;;;;;4994146;28;20234;-79
2023/03/29 08:33:00;;;;;;;5.23;4.47;;;6.30;99.90;;;;;;4988767;28;20241;-79
2023/03/29 08:35:28;;;;;;;6.03;3.83;;;6.30;99.90;;;;;;4989998;28;20715;-79
2023/03/29 08:38:07;;;;;;;5.57;3.67;;;6.20;99.90;;;;;;4993107;28;20238;-79
2023/03/29 08:40:34;;;;;;;6.00;3.40;;;6.30;99.90;;;;;;4990740;28;20578;-79
2023/03/29 08:43:31;;;;;;;5.67;3.50;;;6.30;99.90;;;;;;4992442;28;20222;-80
2023/03/29 08:46:31;;;;;;;5.00;3.90;;;6.30;99.90;;;;;;5002967;28;20289;-80
2023/03/29 08:49:06;;;;;;;5.17;3.90;;;6.40;99.90;;;;;;4988347;28;20257;-79
2023/03/29 08:51:37;;;;;;;5.80;3.70;;;6.50;99.90;;;;;;4992530;28;20249;-79
2023/03/29 08:54:07;;;;;;;5.53;4.03;;;6.50;99.90;;;;;;4989362;28;20310;-80
2023/03/29 08:56:50;;;;;;;4.83;3.70;;;6.60;99.90;;;;;;4987452;28;20276;-79
2023/03/29 08:59:30;;;;;;;6.23;3.50;;;6.70;99.90;;;;;;4991621;28;20219;-79
2023/03/29 09:02:01;;;;;;;5.63;3.80;;;6.70;99.90;;;;;;4989765;28;20649;-79
2023/03/29 09:04:31;;;;;;;6.83;3.73;;;6.80;99.90;;;;;;4991061;28;20236;-79
2023/03/29 09:07:09;;;;;;;6.90;4.13;;;6.90;99.90;;;;;;4990487;28;20231;-79
2023/03/29 09:09:42;;;;;;;5.03;3.60;;;7.00;99.90;;;;;;4989387;28;20289;-79
2023/03/29 09:12:43;;;;;;;5.30;3.50;;;7.10;99.90;;;;;;5008435;28;20303;-79
2023/03/29 09:15:18;;;;;;;4.87;3.77;;;7.20;99.90;;;;;;4989198;28;20238;-79
2023/03/29 09:18:05;;;;;;;7.30;3.97;;;7.30;99.90;;;;;;4988309;28;20319;-79
2023/03/29 09:20:43;;;;;;;4.23;3.50;;;7.50;99.90;;;;;;4990576;28;20236;-79
2023/03/29 09:23:37;;;;;;;8.80;4.13;;;7.60;99.90;;;;;;4987966;28;20245;-79
2023/03/29 09:26:38;;;;;;;6.27;3.80;;;7.60;99.90;;;;;;5004210;28;20232;-79
2023/03/29 09:29:42;;;;;;;5.60;3.73;;;7.70;99.90;;;;;;4993005;28;20237;-79
2023/03/29 09:32:19;;;;;;;4.67;3.47;;;7.90;99.90;;;;;;4990029;28;20229;-78
2023/03/29 09:34:57;;;;;;;4.87;3.90;;;8.00;99.90;;;;;;4985790;28;20315;-78
2023/03/29 09:37:31;;;;;;;6.20;3.90;;;8.20;99.90;;;;;;4990599;28;20237;-78
2023/03/29 09:40:02;;;;;;;4.50;3.90;;;8.30;99.90;;;;;;4988341;28;20905;-78
2023/03/29 09:42:44;;;;;;;6.70;3.80;;;8.50;99.90;;;;;;4979630;28;20239;-78
2023/03/29 09:45:12;;;;;;;6.10;3.47;;;8.50;99.90;;;;;;4986177;28;20712;-78
2023/03/29 09:47:50;;;;;;;4.80;3.67;;;8.60;99.90;;;;;;4995778;23;20225;-91
2023/03/29 09:50:24;;;;;;;4.77;3.67;;;8.70;99.90;;;;;;4978688;28;20222;-92
2023/03/29 09:52:53;;;;;;;4.77;3.73;;;8.80;99.90;;;;;;4987466;28;20226;-92
2023/03/29 09:55:28;;;;;;;6.10;3.90;;;8.90;99.90;;;;;;4981510;28;20218;-92
2023/03/29 09:58:13;;;;;;;4.73;3.77;;;9.00;99.90;;;;;;5031323;23;20232;-76
2023/03/29 10:00:44;;;;;;;4.60;3.60;;;9.10;99.90;;;;;;4989230;28;20320;-76
2023/03/29 10:03:18;;;;;;;6.43;3.80;;;9.20;99.90;;;;;;4988491;28;20652;-76
2023/03/29 10:05:53;;;;;;;5.07;3.67;;;9.30;99.90;;;;;;4985896;28;20223;-76
2023/03/29 10:08:23;;;;;;;6.27;3.80;;;9.50;99.90;;;;;;4985972;28;20322;-76
2023/03/29 10:10:52;;;;;;;5.07;3.80;;;9.60;99.90;;;;;;4969925;28;20828;-76
2023/03/29 10:13:22;;;;;;;5.97;3.47;;;9.70;99.90;;;;;;4970346;28;20268;-76
2023/03/29 10:16:02;;;;;;;5.50;3.77;;;9.80;99.90;;;;;;4971404;28;20317;-76
2023/03/29 10:18:30;;;;;;;6.13;3.60;;;10.00;99.90;;;;;;4969397;28;20238;-77
2023/03/29 10:20:59;;;;;;;5.33;3.50;;;10.10;99.90;;;;;;4969810;28;20695;-77
2023/03/29 10:23:31;;;;;;;5.37;3.83;;;10.20;99.40;;;;;;4983182;28;20233;-76
2023/03/29 10:25:59;;;;;;;5.33;3.80;;;10.20;99.60;;;;;;4989000;28;20346;-77
2023/03/29 10:28:29;;;;;;;8.23;4.13;;;10.10;99.00;;;;;;4987955;28;20230;-76
2023/03/29 10:30:59;;;;;;;5.73;4.10;;;10.10;99.80;;;;;;4988929;28;20242;-77
2023/03/29 10:33:30;;;;;;;6.93;4.23;;;10.20;99.80;;;;;;4989411;28;20231;-76
2023/03/29 10:35:58;;;;;;;6.20;3.90;;;10.20;99.90;;;;;;4990505;28;20244;-77
2023/03/29 10:38:28;;;;;;;6.17;4.17;;;10.30;99.40;;;;;;4990178;28;20844;-77
2023/03/29 10:41:03;;;;;;;7.40;4.10;;;10.30;99.50;;;;;;4990169;28;20751;-77
2023/03/29 10:43:37;;;;;;;4.93;3.97;;;10.30;99.30;;;;;;4978214;28;20238;-76
2023/03/29 10:46:09;;;;;;;5.23;3.77;;;10.30;99.30;;;;;;4970592;28;20244;-76
2023/03/29 10:48:36;;;;;;;7.63;3.83;;;10.30;99.20;;;;;;4970225;28;20568;-76
2023/03/29 10:51:06;;;;;;;6.33;4.13;;;10.30;99.70;;;;;;4970569;28;20240;-76
2023/03/29 10:53:35;;;;;;;6.00;4.27;;;10.30;99.70;;;;;;4968638;28;20231;-77
2023/03/29 10:56:30;;;;;;;5.93;4.10;;;10.30;99.90;;;;;;4968617;28;20232;-77
2023/03/29 10:59:15;;;;;;;7.13;4.53;;;10.40;99.90;;;;;;4991068;28;20245;-77
2023/03/29 11:01:49;;;;;;;6.00;4.07;;;10.60;99.90;;;;;;4974471;28;20658;-76
2023/03/29 11:04:26;;;;;;;7.90;4.77;;;10.80;99.90;;;;;;4970235;28;20254;-77
2023/03/29 11:07:03;;;;;;;7.67;4.13;;;11.10;99.90;;;;;;4970691;28;20232;-76
2023/03/29 11:09:42;;;;;;;6.07;4.17;;;11.20;99.60;;;;;;4968450;28;20232;-77
2023/03/29 11:12:16;;;;;;;6.17;4.53;;;11.40;99.40;;;;;;4967973;28;20239;-76
2023/03/29 11:14:57;;;;;;;6.13;4.47;;;11.50;99.10;;;;;;4970140;28;20398;-76
2023/03/29 11:17:33;;;;;;;6.07;4.20;;;11.50;98.70;;;;;;4969161;28;21684;-76
2023/03/29 11:20:14;;;;;;;8.00;4.43;;;11.50;98.90;;;;;;4969427;28;20239;-77
2023/03/29 11:22:49;;;;;;;5.17;4.03;;;11.50;98.70;;;;;;4969114;28;20611;-76
2023/03/29 11:25:29;;;;;;;4.53;3.93;;;11.60;99.00;;;;;;4967333;28;20259;-76
2023/03/29 11:28:03;;;;;;;6.90;4.20;;;11.60;99.00;;;;;;4968914;28;20351;-76
2023/03/29 11:30:38;;;;;;;7.07;4.63;;;11.70;99.10;;;;;;4967572;28;20770;-76
2023/03/29 11:33:16;;;;;;;5.90;3.90;;;11.80;98.60;;;;;;4966854;28;20310;-76
2023/03/29 11:35:51;;;;;;;5.93;4.20;;;11.90;98.90;;;;;;4969629;28;20720;-76
2023/03/29 11:38:25;;;;;;;7.13;4.30;;;11.90;98.90;;;;;;4967464;28;20343;-76
2023/03/29 11:40:58;;;;;;;6.13;4.60;;;11.90;98.30;;;;;;4968240;28;20289;-76
2023/03/29 11:43:30;;;;;;;7.93;4.43;;;11.90;98.60;;;;;;4969456;28;20737;-77
2023/03/29 11:46:04;;;;;;;5.47;4.30;;;11.90;98.70;;;;;;4969942;28;20271;-76
2023/03/29 11:48:35;;;;;;;6.63;4.40;;;11.90;98.50;;;;;;4967636;28;20237;-77
2023/03/29 11:51:10;;;;;;;6.63;4.03;;;11.90;98.80;;;;;;4968136;28;20241;-77
2023/03/29 11:53:43;;;;;;;7.57;4.30;;;11.80;99.00;;;;;;4969518;28;20234;-77
2023/03/29 11:56:14;;;;;;;7.80;4.67;;;11.70;98.80;;;;;;4967401;28;20232;-77
2023/03/29 11:58:47;;;;;;;6.90;5.00;;;11.60;99.10;;;;;;4969278;28;20639;-77
2023/03/29 12:01:22;;;;;;;7.53;5.00;;;11.60;99.30;;;;;;4967115;28;20231;-76
2023/03/29 12:03:52;;;;;;;7.50;5.10;;;11.40;99.50;;;;;;4968025;28;20242;-76
2023/03/29 12:06:23;;;;;;;10.10;5.40;;;11.40;99.90;;;;;;4966424;28;20239;-76
2023/03/29 12:08:54;;;;;;;8.70;5.57;;;11.30;99.90;;;;;;4969118;28;20600;-77
2023/03/29 12:11:28;;;;;;;7.80;5.83;;;11.10;99.90;;;;;;4968620;28;20721;-77
2023/03/29 12:14:01;;;;;;;8.20;5.93;;;11.00;99.90;;;;;;4969270;28;20580;-77
2023/03/29 12:16:33;;;;;;;9.23;5.80;;;10.90;99.90;;;;;;4968684;28;20589;-77
2023/03/29 12:19:04;;;;;;;8.20;5.27;;;10.80;99.90;;;;;;4969328;28;20235;-77
2023/03/29 12:21:33;;;;;;;8.47;5.30;;;10.70;99.90;;;;;;4967040;28;20662;-76
2023/03/29 12:24:01;;;;;;;6.77;5.37;;;10.70;99.90;;;;;;4967602;28;20235;-76
2023/03/29 12:27:06;;;;;;;9.20;6.03;;;10.60;99.90;;;;;;4966650;28;20294;-76
2023/03/29 12:29:48;;;;;;;7.20;5.47;;;10.60;99.90;;;;;;4954146;28;20303;-77
2023/03/29 12:32:40;;;;;;;8.90;5.27;;;10.60;99.90;;;;;;4966729;28;20237;-76
2023/03/29 12:35:34;;;;;;;8.30;5.03;;;10.50;99.90;;;;;;4968790;28;20230;-77
2023/03/29 12:38:26;;;;;;;7.97;5.83;;;10.60;99.90;;;;;;4931906;28;20236;-77
2023/03/29 12:41:18;;;;;;;8.70;5.23;;;10.50;99.90;;;;;;4931016;28;20253;-76
2023/03/29 12:44:13;;;;;;;7.50;5.07;;;10.50;99.90;;;;;;4949476;28;20236;-77
2023/03/29 12:47:01;;;;;;;7.10;5.03;;;10.50;99.90;;;;;;4968237;28;20226;-77
2023/03/29 12:49:32;;;;;;;6.20;4.97;;;10.50;99.90;;;;;;4968192;28;20241;-77
2023/03/29 12:52:01;;;;;;;7.07;5.23;;;10.50;99.90;;;;;;4968840;28;20260;-77
2023/03/29 12:54:31;;;;;;;8.00;5.83;;;10.50;99.90;;;;;;4966488;28;20377;-77
2023/03/29 12:57:01;;;;;;;9.53;5.73;;;10.60;99.90;;;;;;4966692;28;20233;-76
2023/03/29 12:59:37;;;;;;;9.47;6.40;;;10.70;99.90;;;;;;4967867;28;20666;-77
2023/03/29 13:02:35;;;;;;;7.67;6.20;;;10.70;99.90;;;;;;4966619;28;20326;-77
2023/03/29 13:05:04;;;;;;;6.87;5.63;;;10.80;99.90;;;;;;4966625;28;20228;-76
2023/03/29 13:07:45;;;;;;;7.47;6.50;;;10.90;99.90;;;;;;4967933;28;20694;-77
2023/03/29 13:10:35;;;;;;;8.87;6.67;;;10.90;99.90;;;;;;4968011;28;20282;-76
2023/03/29 13:13:11;;;;;;;8.83;6.33;;;11.00;99.90;;;;;;4967995;28;20338;-76
2023/03/29 13:15:39;;;;;;;11.17;6.00;;;11.00;99.90;;;;;;4966338;28;20230;-76
2023/03/29 13:18:19;;;;;;;8.57;6.00;;;11.10;99.90;;;;;;4969783;28;20219;-76
2023/03/29 13:20:55;;;;;;;6.67;5.80;;;11.20;99.90;;;;;;4970394;28;20231;-76
2023/03/29 13:23:31;;;;;;;8.43;6.13;;;11.20;99.90;;;;;;4971723;28;20250;-77
2023/03/29 13:26:18;;;;;;;9.73;5.90;;;11.30;99.90;;;;;;4972011;28;20272;-78
2023/03/29 13:29:01;;;;;;;8.10;6.00;;;11.30;99.90;;;;;;4971728;28;20629;-77
2023/03/29 13:31:35;;;;;;;7.63;5.43;;;11.40;99.90;;;;;;4971463;28;20299;-77
2023/03/29 13:34:09;;;;;;;7.53;5.60;;;11.50;99.90;;;;;;4972192;28;20649;-77
2023/03/29 13:36:45;;;;;;;6.57;5.00;;;11.50;99.90;;;;;;4971429;28;20241;-77